Ops Hamburg — A8VS9 — position and weather

sailwx.info

Track history (hours):
 
Tides and Currents Weather Stations Pressure Air Temp Water Temp Dewpoint Dewpoint Depression Visibility Wind Speed Wind Dir Waves Ship Positions

Ops Hamburg

Last reported at 2017-Mar-29 20:11 UTC. Time now 2017-Mar-29 22:54 UTC.
Position N 42°15' E 003°60'.

Length 148 m; draft 6.6 m.

Type: Ship (hazmat cat A). MMSI: 636092040.

Date/timePositionNaut miles runAvg speedWind from/ knotsBaromVisibWave heightAir tempDewpointWater temp
2017-Mar-29 20:11N 42°15' E 003°60'913.1
2017-Mar-29 19:30N 42°22' E 004°08'1713.0
2017-Mar-29 18:12N 42°34' E 004°23'2314.0
2017-Mar-29 16:33N 42°51' E 004°44'2713.6
2017-Mar-29 14:33N 43°12' E 005°09'1211.5
2017-Mar-29 13:31N 43°21' E 005°19'1 0.4
2017-Mar-29 11:29N 43°21' E 005°20'0 0.0
2017-Mar-29 05:26N 43°21' E 005°20'0 0.0
2017-Mar-29 01:05N 43°21' E 005°20'0 0.0
2017-Mar-28 21:05N 43°21' E 005°20'0 0.0
2017-Mar-28 20:23N 43°21' E 005°20'2 2.4
2017-Mar-28 19:33N 43°20' E 005°17'2110.1
2017-Mar-28 17:31N 43°05' E 004°59'1312.5
2017-Mar-28 16:26N 42°60' E 004°42'1313.1
2017-Mar-28 15:26N 42°56' E 004°25'1112.8
2017-Mar-28 14:33N 42°53' E 004°10'1312.7
2017-Mar-28 13:33N 42°48' E 003°54'2712.9
2017-Mar-28 11:26N 42°36' E 003°21'51 1.4
2017-Mar-26 23:29N 41°45' E 003°24'1413.9
2017-Mar-26 22:28N 41°33' E 003°13'1314.0
2017-Mar-26 21:33N 41°23' E 003°03'1413.9
2017-Mar-26 20:33N 41°12' E 002°52'1413.9
2017-Mar-26 19:33N 41°01' E 002°40'1414.3
2017-Mar-26 18:33N 40°50' E 002°29'1413.9
2017-Mar-26 17:33N 40°39' E 002°17'1414.0
2017-Mar-26 16:33N 40°27' E 002°08'1413.8
2017-Mar-26 15:33N 40°15' E 001°57'1413.8
2017-Mar-26 14:33N 40°05' E 001°46'1413.6
2017-Mar-26 13:33N 39°54' E 001°35'1413.7
2017-Mar-26 12:33N 39°43' E 001°24'1414.0
2017-Mar-26 11:33N 39°31' E 001°14'1514.1
2017-Mar-26 10:28N 39°19' E 001°02'12115.3
2017-Mar-26 02:32N 37°39' W 000°26'1615.6
2017-Mar-26 01:32N 37°28' W 000°38'23714.9
2017-Mar-25 09:34N 36°01' W 005°14'  
2017-Mar-20 16:17N 35°53' W 005°57'1112.0
2017-Mar-20 15:20N 35°57' W 005°43'1013.0
2017-Mar-20 14:34N 35°58' W 005°31'10 9.6
2017-Mar-20 13:33N 36°07' W 005°25'1 1.2
2017-Mar-20 12:31N 36°08' W 005°25'0 0.0
2017-Mar-20 11:31N 36°08' W 005°25'0 0.0
2017-Mar-20 10:31N 36°08' W 005°25'0 0.0
2017-Mar-20 09:31N 36°08' W 005°25'0 0.0
2017-Mar-20 08:31N 36°08' W 005°25'0 0.0
2017-Mar-20 07:31N 36°08' W 005°25'0 0.0
2017-Mar-20 06:34N 36°08' W 005°25'3 2.6
2017-Mar-20 05:33N 36°06' W 005°23'9 8.8
2017-Mar-20 04:33N 36°03' W 005°12'1211.8
2017-Mar-20 03:34N 36°09' W 004°60'1 1.3
2017-Mar-20 02:33N 36°10' W 004°59'1 0.9
2017-Mar-20 01:33N 36°11' W 004°59'1 0.9
2017-Mar-20 00:24N 36°12' W 004°59'1 0.8
2017-Mar-19 23:33N 36°13' W 004°59'1 0.5
2017-Mar-19 22:33N 36°13' W 004°60'0 0.3
2017-Mar-19 21:33N 36°13' W 005°00'0 0.4
2017-Mar-19 20:33N 36°13' W 005°01'  
Track history (hours):
 
Tides and Currents Weather Stations Pressure Air Temp Water Temp Dewpoint Dewpoint Depression Visibility Wind Speed Wind Dir Waves Ship Positions

Ops Hamburg

Last reported at 2017-Mar-29 20:11 UTC. Time now 2017-Mar-29 22:54 UTC.
Position N 42°15' E 003°60'.

Length 148 m; draft 6.6 m.

Type: Ship (hazmat cat A). MMSI: 636092040.

Date/timePositionNaut miles runAvg speedWind from/ knotsBaromVisibWave heightAir tempDewpointWater temp
2017-Mar-29 20:11N 42°15' E 003°60'913.1
2017-Mar-29 19:30N 42°22' E 004°08'1713.0
2017-Mar-29 18:12N 42°34' E 004°23'2314.0
2017-Mar-29 16:33N 42°51' E 004°44'2713.6
2017-Mar-29 14:33N 43°12' E 005°09'1211.5
2017-Mar-29 13:31N 43°21' E 005°19'1 0.4
2017-Mar-29 11:29N 43°21' E 005°20'0 0.0
2017-Mar-29 05:26N 43°21' E 005°20'0 0.0
2017-Mar-29 01:05N 43°21' E 005°20'0 0.0
2017-Mar-28 21:05N 43°21' E 005°20'0 0.0
2017-Mar-28 20:23N 43°21' E 005°20'2 2.4
2017-Mar-28 19:33N 43°20' E 005°17'2110.1
2017-Mar-28 17:31N 43°05' E 004°59'1312.5
2017-Mar-28 16:26N 42°60' E 004°42'1313.1
2017-Mar-28 15:26N 42°56' E 004°25'1112.8
2017-Mar-28 14:33N 42°53' E 004°10'1312.7
2017-Mar-28 13:33N 42°48' E 003°54'2712.9
2017-Mar-28 11:26N 42°36' E 003°21'51 1.4
2017-Mar-26 23:29N 41°45' E 003°24'1413.9
2017-Mar-26 22:28N 41°33' E 003°13'1314.0
2017-Mar-26 21:33N 41°23' E 003°03'1413.9
2017-Mar-26 20:33N 41°12' E 002°52'1413.9
2017-Mar-26 19:33N 41°01' E 002°40'1414.3
2017-Mar-26 18:33N 40°50' E 002°29'1413.9
2017-Mar-26 17:33N 40°39' E 002°17'1414.0
2017-Mar-26 16:33N 40°27' E 002°08'1413.8
2017-Mar-26 15:33N 40°15' E 001°57'1413.8
2017-Mar-26 14:33N 40°05' E 001°46'1413.6
2017-Mar-26 13:33N 39°54' E 001°35'1413.7
2017-Mar-26 12:33N 39°43' E 001°24'1414.0
2017-Mar-26 11:33N 39°31' E 001°14'1514.1
2017-Mar-26 10:28N 39°19' E 001°02'12115.3
2017-Mar-26 02:32N 37°39' W 000°26'1615.6
2017-Mar-26 01:32N 37°28' W 000°38'23714.9
2017-Mar-25 09:34N 36°01' W 005°14'  
2017-Mar-20 16:17N 35°53' W 005°57'1112.0
2017-Mar-20 15:20N 35°57' W 005°43'1013.0
2017-Mar-20 14:34N 35°58' W 005°31'10 9.6
2017-Mar-20 13:33N 36°07' W 005°25'1 1.2
2017-Mar-20 12:31N 36°08' W 005°25'0 0.0
2017-Mar-20 11:31N 36°08' W 005°25'0 0.0
2017-Mar-20 10:31N 36°08' W 005°25'0 0.0
2017-Mar-20 09:31N 36°08' W 005°25'0 0.0
2017-Mar-20 08:31N 36°08' W 005°25'0 0.0
2017-Mar-20 07:31N 36°08' W 005°25'0 0.0
2017-Mar-20 06:34N 36°08' W 005°25'3 2.6
2017-Mar-20 05:33N 36°06' W 005°23'9 8.8
2017-Mar-20 04:33N 36°03' W 005°12'1211.8
2017-Mar-20 03:34N 36°09' W 004°60'1 1.3
2017-Mar-20 02:33N 36°10' W 004°59'1 0.9
2017-Mar-20 01:33N 36°11' W 004°59'1 0.9
2017-Mar-20 00:24N 36°12' W 004°59'1 0.8
2017-Mar-19 23:33N 36°13' W 004°59'1 0.5
2017-Mar-19 22:33N 36°13' W 004°60'0 0.3
2017-Mar-19 21:33N 36°13' W 005°00'0 0.4
2017-Mar-19 20:33N 36°13' W 005°01'  

Dump ship's entire track history